Latest Weather Observations for Wadeye (Port Keats)

IDD60801

Issued at 12:31 pm CST Wednesday 29 March 2017 (issued every 30 minutes, with the page automatically refreshed every 10 minutes)

About weather observations | Map of weather stations | Latest weather observations for NT | Other Formats
Station Details ID: 014948 Name: PORT KEATS AIRPORT Lat: -14.25 Lon: 129.53 Height: 28.0 m
Data from the previous 72 hours. | See also: Recent months at Wadeye (Port Keats)
Date/Time
CST
Temp
°C
App
Temp
°C
Dew
Point
°C
Rel
Hum
%
Delta-T
°C
Wind Press
QNH
hPa
Press
MSL
hPa
Rain since
9am
mm
Dir  Spd
km/h
Gust
km/h
Spd
kts
Gust
kts
29/12:30pm 32.6 37.2 25.4 66 5.1 W 11 17 6 9 1008.1 1007.9 0.0
29/12:00pm 31.4 35.5 24.5 67 4.8 W 11 17 6 9 1008.8 1008.6 0.0
29/11:30am 31.8 36.1 24.9 67 4.9 W 11 17 6 9 1009.3 1009.1 0.0
29/11:00am 31.6 36.0 25.0 68 4.7 WNW 11 19 6 10 1009.5 1009.3 0.0
29/10:30am 30.9 35.6 25.5 73 3.8 W 11 17 6 9 1009.5 1009.3 0.0
29/10:00am 31.0 35.9 25.8 74 3.7 W 11 19 6 10 1009.5 1009.3 0.0
29/09:30am 30.3 34.7 25.1 73 3.7 W 11 17 6 9 1009.7 1009.5 0.0
29/09:00am 29.9 33.5 25.0 75 3.4 WNW 15 20 8 11 1009.0 1008.8 0.0
29/08:30am 29.2 35.4 25.8 82 2.4 WNW 4 9 2 5 1009.1 1008.9 0.0
29/08:00am 28.2 35.4 26.2 89 1.4 CALM 0 6 0 3 1008.8 1008.6 0.0
29/07:30am 26.5 33.0 25.1 92 1.0 CALM 0 0 0 0 1008.5 1008.3 0.0
29/07:00am 26.5 32.9 24.9 91 1.1 CALM 0 0 0 0 1008.2 1008.0 0.0
29/06:30am 26.6 33.1 25.0 91 1.1 CALM 0 0 0 0 1007.9 1007.7 0.0
29/06:00am 26.9 33.7 25.5 92 1.0 CALM 0 0 0 0 1007.8 1007.6 0.0
29/05:30am 26.8 33.5 25.4 92 1.0 CALM 0 0 0 0 1007.7 1007.5 0.0
29/05:00am 26.7 33.2 25.1 91 1.1 CALM 0 0 0 0 1007.6 1007.4 0.0
29/04:30am 27.0 33.7 25.4 91 1.1 CALM 0 0 0 0 1007.6 1007.4 0.0
29/04:00am 27.0 33.5 25.6 92 1.0 WNW 2 6 1 3 1007.4 1007.2 0.0
29/03:30am 26.4 32.7 24.8 91 1.1 CALM 0 0 0 0 1007.4 1007.2 0.0
29/03:00am 26.9 33.5 25.3 91 1.1 CALM 0 0 0 0 1007.7 1007.5 0.0
29/02:30am 26.9 33.5 25.3 91 1.1 CALM 0 0 0 0 1007.7 1007.5 0.0
29/02:00am 27.1 33.7 25.3 90 1.3 CALM 0 0 0 0 1007.9 1007.7 0.0
29/01:30am 27.1 33.7 25.3 90 1.3 CALM 0 0 0 0 1007.8 1007.6 0.0
29/01:00am 27.1 33.6 25.1 89 1.4 CALM 0 0 0 0 1008.1 1007.9 0.0
29/12:30am 27.3 33.8 25.1 88 1.5 CALM 0 0 0 0 1008.2 1008.0 0.0
29/12:00am 27.9 34.7 25.5 87 1.7 CALM 0 2 0 1 1008.5 1008.3 0.0
 
Date/Time
CST
Temp
°C
App
Temp
°C
Dew
Point
°C
Rel
Hum
%
Delta-T
°C
Wind Press
QNH
hPa
Press
MSL
hPa
Rain since
9am
mm
Dir  Spd
km/h
Gust
km/h
Spd
kts
Gust
kts
28/11:30pm 27.9 34.7 25.5 87 1.7 CALM 0 0 0 0 1008.4 1008.2 0.0
28/11:00pm 27.7 33.3 25.5 88 1.5 SSW 6 9 3 5 1008.3 1008.1 0.0
28/10:30pm 28.1 33.4 25.9 88 1.6 NNW 9 11 5 6 1008.2 1008.0 0.0
28/10:00pm 27.7 34.5 25.5 88 1.5 CALM 0 0 0 0 1008.5 1008.3 0.0
28/09:30pm 28.3 35.1 25.5 85 2.0 CALM 0 6 0 3 1008.7 1008.5 0.0
28/09:00pm 28.2 34.7 25.6 86 1.8 E 2 9 1 5 1008.8 1008.6 0.0
28/08:30pm 28.2 34.9 25.4 85 2.0 CALM 0 0 0 0 1008.6 1008.4 0.0
28/08:00pm 28.5 35.0 25.1 82 2.4 CALM 0 0 0 0 1007.9 1007.7 0.0
28/07:30pm 29.0 35.6 25.2 80 2.7 CALM 0 0 0 0 1007.5 1007.3 0.0
28/07:00pm 29.4 34.7 24.9 77 3.2 WNW 6 11 3 6 1006.5 1006.3 0.0
28/06:30pm 30.4 35.5 25.0 73 3.8 W 7 11 4 6 1006.2 1006.0 0.0
28/06:00pm 30.9 35.3 25.0 71 4.2 W 11 17 6 9 1005.9 1005.7 0.0
28/05:30pm 31.9 36.1 24.7 65 5.1 W 11 20 6 11 1005.7 1005.5 0.0
28/05:00pm 32.5 36.7 24.8 64 5.4 W 11 17 6 9 1005.8 1005.6 0.0
28/04:30pm 32.5 37.0 24.0 61 5.9 WNW 7 15 4 8 1006.0 1005.8 0.0
28/04:00pm 32.5 36.7 24.8 64 5.4 W 11 17 6 9 1006.3 1006.1 0.0
28/03:30pm 32.4 36.0 24.4 62 5.6 WSW 13 20 7 11 1006.6 1006.4 0.0
28/03:00pm 32.1 35.9 24.7 65 5.2 WNW 13 19 7 10 1007.0 1006.8 0.0
28/02:30pm 32.2 36.5 25.5 67 4.8 W 13 20 7 11 1007.7 1007.5 0.0
28/02:00pm 31.1 34.8 24.5 68 4.6 WNW 13 19 7 10 1008.1 1007.9 0.0
28/01:30pm 31.3 35.1 24.7 68 4.6 WNW 13 20 7 11 1008.4 1008.2 0.0
28/01:00pm 31.7 35.7 25.1 68 4.7 WNW 13 20 7 11 1008.7 1008.5 0.0
28/12:30pm 30.8 34.3 24.9 71 4.2 W 15 22 8 12 1008.9 1008.7 0.0
28/12:00pm 31.2 34.7 24.8 69 4.5 WNW 15 22 8 12 1009.3 1009.1 0.0
28/11:30am 31.5 35.9 25.6 71 4.2 WNW 13 17 7 9 1009.7 1009.5 0.0
28/11:00am 30.7 34.9 24.8 71 4.1 W 11 19 6 10 1009.9 1009.7 0.0
28/10:30am 30.8 35.4 25.4 73 3.8 WSW 11 17 6 9 1010.1 1009.9 0.0
28/10:00am 30.7 35.7 26.0 76 3.3 WNW 11 19 6 10 1010.2 1010.0 0.0
28/09:30am 30.4 35.5 25.5 75 3.5 W 9 15 5 8 1010.2 1010.0 0.0
28/09:00am 29.5 36.0 25.7 80 2.7 WSW 2 9 1 5 1010.1 1009.9 0.2
28/08:30am 28.7 35.4 25.9 85 2.0 SW 2 7 1 4 1009.7 1009.5 0.2
28/08:00am 27.7 34.5 25.5 88 1.5 CALM 0 0 0 0 1009.4 1009.2 0.2
28/07:30am 27.6 34.6 25.8 90 1.3 CALM 0 0 0 0 1009.2 1009.0 0.2
28/07:00am 27.2 33.9 25.4 90 1.3 CALM 0 0 0 0 1009.0 1008.8 0.2
28/06:30am 26.7 32.5 25.1 91 1.1 SW 4 7 2 4 1008.7 1008.5 0.2
28/06:00am 26.5 32.9 24.9 91 1.1 CALM 0 0 0 0 1008.3 1008.1 0.2
28/05:30am 26.6 32.7 25.0 91 1.1 E 2 7 1 4 1008.2 1008.0 0.2
28/05:00am 26.6 31.7 25.0 91 1.1 E 7 11 4 6 1008.2 1008.0 0.2
28/04:30am 26.8 33.4 25.2 91 1.1 CALM 0 0 0 0 1008.0 1007.8 0.2
28/04:00am 26.7 33.3 25.3 92 1.0 CALM 0 0 0 0 1008.0 1007.8 0.2
28/03:30am 26.3 32.7 24.9 92 1.0 CALM 0 0 0 0 1008.0 1007.8 0.2
28/03:00am 26.5 33.0 25.1 92 1.0 CALM 0 0 0 0 1008.4 1008.2 0.2
28/02:30am 26.2 32.5 24.8 92 1.0 CALM 0 0 0 0 1008.4 1008.2 0.2
28/02:00am 26.3 32.6 24.7 91 1.1 CALM 0 0 0 0 1008.7 1008.5 0.2
28/01:30am 26.4 32.7 24.8 91 1.1 CALM 0 2 0 1 1008.7 1008.5 0.2
28/01:00am 26.5 33.0 25.1 92 1.0 CALM 0 0 0 0 1008.5 1008.3 0.2
28/12:30am 26.4 32.1 25.0 92 1.0 W 4 7 2 4 1008.8 1008.6 0.2
28/12:00am 26.5 32.8 24.7 90 1.3 CALM 0 0 0 0 1009.5 1009.3 0.2
 
Date/Time
CST
Temp
°C
App
Temp
°C
Dew
Point
°C
Rel
Hum
%
Delta-T
°C
Wind Press
QNH
hPa
Press
MSL
hPa
Rain since
9am
mm
Dir  Spd
km/h
Gust
km/h
Spd
kts
Gust
kts
27/11:30pm 26.8 33.1 24.8 89 1.4 CALM 0 0 0 0 1009.7 1009.5 0.2
27/11:00pm 26.7 33.1 24.9 90 1.3 CALM 0 2 0 1 1009.8 1009.6 0.2
27/10:30pm 27.2 33.7 25.0 88 1.5 CALM 0 0 0 0 1009.9 1009.7 0.2
27/10:00pm 27.4 33.9 25.0 87 1.7 CALM 0 0 0 0 1009.8 1009.6 0.2
27/09:30pm 27.3 33.9 25.3 89 1.4 CALM 0 2 0 1 1009.4 1009.2 0.2
27/09:00pm 26.8 33.0 24.6 88 1.5 CALM 0 0 0 0 1009.0 1008.8 0.2
27/08:30pm 27.7 34.0 24.7 84 2.1 CALM 0 0 0 0 1008.7 1008.5 0.2
27/08:00pm 28.1 34.4 24.7 82 2.4 CALM 0 0 0 0 1008.1 1007.9 0.2
27/07:30pm 28.3 33.9 24.3 79 2.8 WNW 2 6 1 3 1007.4 1007.2 0.2
27/07:00pm 28.7 34.3 24.3 77 3.1 NW 2 9 1 5 1007.4 1007.2 0.2
27/06:30pm 29.2 34.8 24.3 75 3.4 WNW 2 7 1 4 1007.1 1006.9 0.2
27/06:00pm 29.0 33.3 24.3 76 3.3 NW 9 15 5 8 1006.7 1006.5 0.2
27/05:30pm 29.6 33.5 24.2 73 3.8 NW 11 15 6 8 1006.8 1006.6 0.2
27/05:00pm 30.2 34.4 24.1 70 4.2 NNW 9 11 5 6 1006.9 1006.7 0.2
27/04:30pm 30.6 35.2 23.8 67 4.7 WNW 6 9 3 5 1007.1 1006.9 0.2
27/04:00pm 30.4 34.1 22.6 63 5.3 W 7 9 4 5 1007.0 1006.8 0.2
27/03:30pm 31.0 36.0 23.9 66 4.9 WSW 4 11 2 6 1006.9 1006.7 0.2
27/03:00pm 31.4 35.2 22.7 60 6.0 SW 7 13 4 7 1007.0 1006.8 0.2
27/02:30pm 32.3 35.4 23.5 59 6.1 W 13 19 7 10 1007.3 1007.1 0.2
27/02:00pm 32.6 36.8 23.5 58 6.3 SW 7 17 4 9 1007.8 1007.6 0.2
27/01:30pm 31.8 35.0 23.1 60 6.0 WSW 11 20 6 11 1008.2 1008.0 0.2
27/01:00pm 31.5 34.8 22.5 59 6.2 SSW 9 17 5 9 1008.7 1008.5 0.2
27/12:30pm 31.7 34.8 23.5 62 5.7 WSW 13 20 7 11 1008.8 1008.6 0.2
27/12:00pm 31.8 36.8 25.4 69 4.5 WSW 9 19 5 10 1009.1 1008.9 0.2
27/11:30am 31.0 34.5 23.6 64 5.1 W 11 17 6 9 1009.6 1009.4 0.2
27/11:00am 30.9 35.3 23.8 66 4.9 W 7 13 4 7 1010.0 1009.8 0.2
27/10:30am 30.1 35.2 24.7 73 3.8 WSW 6 13 3 7 1010.3 1010.1 0.2
27/10:00am 29.1 34.2 24.7 77 3.1 WSW 6 11 3 6 1010.1 1009.9 0.0
27/09:30am 28.7 34.0 24.3 77 3.1 SW 4 9 2 5 1010.4 1010.2 0.0
27/09:00am 28.3 33.6 24.3 79 2.8 SW 4 7 2 4 1010.3 1010.1 1.0
27/08:30am 27.3 33.7 24.9 87 1.7 CALM 0 6 0 3 1010.5 1010.3 1.0
27/08:00am 27.1 33.5 25.5 91 1.1 E 2 7 1 4 1010.1 1009.9 1.0
27/07:30am 25.9 32.2 24.7 93 0.8 CALM 0 0 0 0 1009.4 1009.2 1.0
27/07:00am 25.9 32.0 24.5 92 1.0 CALM 0 0 0 0 1009.0 1008.8 1.0
27/06:30am 26.0 32.2 24.6 92 1.0 CALM 0 0 0 0 1009.2 1009.0 1.0
27/06:00am 26.0 31.5 24.6 92 1.0 SE 4 7 2 4 1009.2 1009.0 1.0
27/05:30am 26.0 31.1 24.6 92 1.0 ENE 6 11 3 6 1009.2 1009.0 0.8
27/05:00am 26.0 31.1 24.6 92 1.0 E 6 7 3 4 1008.9 1008.7 0.4
27/04:30am 25.9 31.0 24.7 93 0.8 SSE 6 7 3 4 1008.8 1008.6 0.4
27/04:00am 25.9 30.9 24.5 92 1.0 ESE 6 7 3 4 1008.7 1008.5 0.4
27/03:30am 25.8 31.1 24.4 92 1.0 WSW 4 11 2 6 1008.9 1008.7 0.4
27/03:00am 26.0 30.9 24.6 92 1.0 ESE 7 11 4 6 1009.0 1008.8 0.4
27/02:30am 26.0 30.9 24.6 92 1.0 SE 7 11 4 6 1009.3 1009.1 0.4
27/02:00am 26.0 32.1 24.4 91 1.1 CALM 0 2 0 1 1009.4 1009.2 0.4
27/01:30am 25.9 31.7 23.9 89 1.4 CALM 0 9 0 5 1009.5 1009.3 0.2
27/01:00am 26.3 31.1 24.2 88 1.4 ESE 6 9 3 5 1009.7 1009.5 0.2
27/12:30am 26.5 31.1 24.2 87 1.6 ENE 7 9 4 5 1009.9 1009.7 0.2
27/12:00am 26.4 32.3 24.1 87 1.6 CALM 0 0 0 0 1010.0 1009.8 0.2
 
Date/Time
CST
Temp
°C
App
Temp
°C
Dew
Point
°C
Rel
Hum
%
Delta-T
°C
Wind Press
QNH
hPa
Press
MSL
hPa
Rain since
9am
mm
Dir  Spd
km/h
Gust
km/h
Spd
kts
Gust
kts
26/11:30pm 26.5 31.3 24.2 87 1.6 NE 6 9 3 5 1009.9 1009.7 0.2
26/11:00pm 26.7 32.3 24.2 86 1.7 ESE 2 6 1 3 1010.5 1010.3 0.2
26/10:30pm 26.7 31.3 24.2 86 1.7 SE 7 9 4 5 1010.4 1010.2 0.2
26/10:00pm 26.4 31.9 24.1 87 1.6 E 2 6 1 3 1009.9 1009.7 0.2
26/09:30pm 26.3 32.0 23.8 86 1.7 CALM 0 6 0 3 1009.6 1009.4 0.2
26/09:00pm 26.3 32.0 23.8 86 1.7 CALM 0 0 0 0 1009.1 1008.9 0.2
26/08:30pm 26.4 31.3 23.7 85 1.9 ENE 4 7 2 4 1008.8 1008.6 0.2
26/08:00pm 26.4 30.9 23.7 85 1.9 NNE 6 7 3 4 1008.2 1008.0 0.2
26/07:30pm 26.3 31.9 23.6 85 1.9 CALM 0 6 0 3 1007.8 1007.6 0.2
26/07:00pm 26.7 28.7 23.0 80 2.5 N 17 24 9 13 1007.3 1007.1 0.2
26/06:30pm 28.9 31.4 23.8 74 3.5 N 17 20 9 11 1006.7 1006.5 0.2
26/06:00pm 29.2 33.1 24.3 75 3.4 N 11 15 6 8 1006.4 1006.2 0.2
26/05:30pm 29.2 33.6 24.5 76 3.3 NW 9 13 5 7 1006.1 1005.9 0.2
26/05:00pm 28.0 33.8 24.6 82 2.4 N 2 9 1 5 1005.7 1005.5 0.2
26/04:30pm 27.7 32.0 23.7 79 2.8 SSW 7 15 4 8 1005.7 1005.5 0.2
26/04:00pm 27.5 31.7 24.1 82 2.4 SW 9 15 5 8 1005.8 1005.6 0.2
26/03:30pm 29.7 33.4 23.9 71 4.0 WNW 11 22 6 12 1005.7 1005.5 0.2
26/03:00pm 30.9 35.1 24.8 70 4.3 W 11 15 6 8 1005.7 1005.5 0.2
26/02:30pm 30.2 34.4 24.1 70 4.3 WNW 9 15 5 8 1005.9 1005.7 0.2
26/02:00pm 30.5 34.1 23.7 67 4.7 WNW 11 15 6 8 1006.1 1005.9 0.2
26/01:30pm 31.5 35.8 23.6 63 5.5 N 7 13 4 7 1006.6 1006.4 0.2
26/01:00pm 31.7 36.1 23.5 62 5.7 NW 6 15 3 8 1007.0 1006.8 0.2

Other Formats:

Comma delimited format used in spreadsheet applications
http://www.bom.gov.au/fwo/IDD60801/IDD60801.95111.axf

JavaScript Object Notation format (JSON) in row-major order
http://www.bom.gov.au/fwo/IDD60801/IDD60801.95111.json